sensor_id;sensor_type;location;lat;lon;timestamp;P1;durP1;ratioP1;P2;durP2;ratioP2
57281;SDS011;43129;52.628;10.098;2023-10-31T00:00:17;12.32;;;8.68;;
57281;SDS011;43129;52.628;10.098;2023-10-31T00:02:43;12.60;;;7.82;;
57281;SDS011;43129;52.628;10.098;2023-10-31T00:05:09;13.13;;;8.55;;
57281;SDS011;43129;52.628;10.098;2023-10-31T00:07:37;17.27;;;7.75;;
57281;SDS011;43129;52.628;10.098;2023-10-31T00:10:02;16.00;;;8.90;;
57281;SDS011;43129;52.628;10.098;2023-10-31T00:12:28;11.38;;;8.45;;
57281;SDS011;43129;52.628;10.098;2023-10-31T00:14:54;13.80;;;7.97;;
57281;SDS011;43129;52.628;10.098;2023-10-31T00:17:19;20.33;;;10.07;;
57281;SDS011;43129;52.628;10.098;2023-10-31T00:19:47;14.30;;;7.28;;
57281;SDS011;43129;52.628;10.098;2023-10-31T00:22:15;9.98;;;7.38;;
57281;SDS011;43129;52.628;10.098;2023-10-31T00:24:41;14.00;;;8.10;;
57281;SDS011;43129;52.628;10.098;2023-10-31T00:27:07;12.75;;;7.45;;
57281;SDS011;43129;52.628;10.098;2023-10-31T00:29:33;16.33;;;9.10;;
57281;SDS011;43129;52.628;10.098;2023-10-31T00:31:58;13.88;;;7.60;;
57281;SDS011;43129;52.628;10.098;2023-10-31T00:34:26;11.55;;;7.53;;
57281;SDS011;43129;52.628;10.098;2023-10-31T00:36:54;11.43;;;7.25;;
57281;SDS011;43129;52.628;10.098;2023-10-31T00:39:22;15.25;;;7.85;;
57281;SDS011;43129;52.628;10.098;2023-10-31T00:41:47;14.82;;;7.13;;
57281;SDS011;43129;52.628;10.098;2023-10-31T00:44:18;13.13;;;7.60;;
57281;SDS011;43129;52.628;10.098;2023-10-31T00:46:44;14.38;;;7.30;;
57281;SDS011;43129;52.628;10.098;2023-10-31T00:49:09;14.30;;;9.15;;
57281;SDS011;43129;52.628;10.098;2023-10-31T00:51:35;11.85;;;7.65;;
57281;SDS011;43129;52.628;10.098;2023-10-31T00:54:01;11.75;;;8.70;;
57281;SDS011;43129;52.628;10.098;2023-10-31T00:56:29;15.82;;;11.38;;
57281;SDS011;43129;52.628;10.098;2023-10-31T00:58:56;18.45;;;11.43;;
57281;SDS011;43129;52.628;10.098;2023-10-31T01:01:22;15.05;;;10.25;;
57281;SDS011;43129;52.628;10.098;2023-10-31T01:03:48;11.70;;;8.88;;
57281;SDS011;43129;52.628;10.098;2023-10-31T01:06:16;12.77;;;8.13;;
57281;SDS011;43129;52.628;10.098;2023-10-31T01:08:44;13.40;;;8.43;;
57281;SDS011;43129;52.628;10.098;2023-10-31T01:11:10;9.90;;;7.55;;
57281;SDS011;43129;52.628;10.098;2023-10-31T01:13:35;10.90;;;8.35;;
57281;SDS011;43129;52.628;10.098;2023-10-31T01:16:01;17.45;;;10.02;;
57281;SDS011;43129;52.628;10.098;2023-10-31T01:18:27;19.77;;;12.85;;
57281;SDS011;43129;52.628;10.098;2023-10-31T01:20:52;12.68;;;9.35;;
57281;SDS011;43129;52.628;10.098;2023-10-31T01:23:20;17.00;;;9.75;;
57281;SDS011;43129;52.628;10.098;2023-10-31T01:25:48;15.32;;;9.35;;
57281;SDS011;43129;52.628;10.098;2023-10-31T01:28:16;17.15;;;9.63;;
57281;SDS011;43129;52.628;10.098;2023-10-31T01:30:41;15.82;;;8.73;;
57281;SDS011;43129;52.628;10.098;2023-10-31T01:33:09;15.27;;;8.95;;
57281;SDS011;43129;52.628;10.098;2023-10-31T01:35:35;15.38;;;9.05;;
57281;SDS011;43129;52.628;10.098;2023-10-31T01:38:05;14.25;;;10.13;;
57281;SDS011;43129;52.628;10.098;2023-10-31T01:40:33;15.70;;;9.23;;
57281;SDS011;43129;52.628;10.098;2023-10-31T01:42:58;15.77;;;9.27;;
57281;SDS011;43129;52.628;10.098;2023-10-31T01:45:26;19.48;;;10.55;;
57281;SDS011;43129;52.628;10.098;2023-10-31T01:47:52;14.63;;;9.50;;
57281;SDS011;43129;52.628;10.098;2023-10-31T01:50:20;16.38;;;9.63;;
57281;SDS011;43129;52.628;10.098;2023-10-31T01:52:51;17.42;;;9.68;;
57281;SDS011;43129;52.628;10.098;2023-10-31T01:55:17;14.90;;;10.05;;
57281;SDS011;43129;52.628;10.098;2023-10-31T01:57:52;18.45;;;10.40;;
57281;SDS011;43129;52.628;10.098;2023-10-31T02:00:18;15.82;;;10.50;;
57281;SDS011;43129;52.628;10.098;2023-10-31T02:02:51;23.27;;;10.38;;
57281;SDS011;43129;52.628;10.098;2023-10-31T02:05:20;17.88;;;11.20;;
57281;SDS011;43129;52.628;10.098;2023-10-31T02:07:46;16.83;;;10.93;;
57281;SDS011;43129;52.628;10.098;2023-10-31T02:10:12;19.00;;;10.52;;
57281;SDS011;43129;52.628;10.098;2023-10-31T02:12:37;15.10;;;9.70;;
57281;SDS011;43129;52.628;10.098;2023-10-31T02:15:05;15.50;;;9.57;;
57281;SDS011;43129;52.628;10.098;2023-10-31T02:17:33;18.02;;;10.15;;
57281;SDS011;43129;52.628;10.098;2023-10-31T02:20:00;16.58;;;10.38;;
57281;SDS011;43129;52.628;10.098;2023-10-31T02:22:26;19.30;;;10.85;;
57281;SDS011;43129;52.628;10.098;2023-10-31T02:24:54;22.38;;;11.15;;
57281;SDS011;43129;52.628;10.098;2023-10-31T02:27:19;20.48;;;10.63;;
57281;SDS011;43129;52.628;10.098;2023-10-31T02:29:45;18.23;;;10.90;;
57281;SDS011;43129;52.628;10.098;2023-10-31T02:32:11;19.40;;;10.80;;
57281;SDS011;43129;52.628;10.098;2023-10-31T02:34:36;21.00;;;11.57;;
57281;SDS011;43129;52.628;10.098;2023-10-31T02:37:05;21.67;;;11.68;;
57281;SDS011;43129;52.628;10.098;2023-10-31T02:39:33;19.13;;;11.70;;
57281;SDS011;43129;52.628;10.098;2023-10-31T02:42:05;19.05;;;10.40;;
57281;SDS011;43129;52.628;10.098;2023-10-31T02:44:35;14.60;;;10.25;;
57281;SDS011;43129;52.628;10.098;2023-10-31T02:47:03;17.88;;;10.85;;
57281;SDS011;43129;52.628;10.098;2023-10-31T02:49:31;15.77;;;9.98;;
57281;SDS011;43129;52.628;10.098;2023-10-31T02:51:56;17.35;;;10.65;;
57281;SDS011;43129;52.628;10.098;2023-10-31T02:54:25;16.65;;;10.95;;
57281;SDS011;43129;52.628;10.098;2023-10-31T02:56:50;20.58;;;11.93;;
57281;SDS011;43129;52.628;10.098;2023-10-31T02:59:19;21.17;;;12.15;;
57281;SDS011;43129;52.628;10.098;2023-10-31T03:01:44;18.08;;;11.27;;
57281;SDS011;43129;52.628;10.098;2023-10-31T03:04:10;22.20;;;11.75;;
57281;SDS011;43129;52.628;10.098;2023-10-31T03:06:37;16.60;;;10.82;;
57281;SDS011;43129;52.628;10.098;2023-10-31T03:09:06;14.75;;;9.90;;
57281;SDS011;43129;52.628;10.098;2023-10-31T03:11:34;16.20;;;9.95;;
57281;SDS011;43129;52.628;10.098;2023-10-31T03:13:59;15.00;;;10.02;;
57281;SDS011;43129;52.628;10.098;2023-10-31T03:16:25;19.65;;;11.15;;
57281;SDS011;43129;52.628;10.098;2023-10-31T03:18:51;19.73;;;11.65;;
57281;SDS011;43129;52.628;10.098;2023-10-31T03:21:17;14.93;;;10.65;;
57281;SDS011;43129;52.628;10.098;2023-10-31T03:23:46;12.88;;;9.35;;
57281;SDS011;43129;52.628;10.098;2023-10-31T03:26:15;13.20;;;9.15;;
57281;SDS011;43129;52.628;10.098;2023-10-31T03:28:42;13.73;;;9.25;;
57281;SDS011;43129;52.628;10.098;2023-10-31T03:31:09;18.35;;;10.10;;
57281;SDS011;43129;52.628;10.098;2023-10-31T03:33:35;17.23;;;10.50;;
57281;SDS011;43129;52.628;10.098;2023-10-31T03:36:03;18.33;;;11.52;;
57281;SDS011;43129;52.628;10.098;2023-10-31T03:38:33;14.93;;;11.30;;
57281;SDS011;43129;52.628;10.098;2023-10-31T03:41:04;16.50;;;9.88;;
57281;SDS011;43129;52.628;10.098;2023-10-31T03:43:32;12.30;;;9.98;;
57281;SDS011;43129;52.628;10.098;2023-10-31T03:46:03;13.85;;;9.40;;
57281;SDS011;43129;52.628;10.098;2023-10-31T03:48:31;15.70;;;10.18;;
57281;SDS011;43129;52.628;10.098;2023-10-31T03:50:59;17.33;;;9.93;;
57281;SDS011;43129;52.628;10.098;2023-10-31T03:53:27;15.73;;;9.85;;
57281;SDS011;43129;52.628;10.098;2023-10-31T03:55:53;18.08;;;10.32;;
57281;SDS011;43129;52.628;10.098;2023-10-31T03:58:19;14.48;;;10.20;;
57281;SDS011;43129;52.628;10.098;2023-10-31T04:00:44;16.52;;;9.48;;
57281;SDS011;43129;52.628;10.098;2023-10-31T04:03:15;12.48;;;9.70;;
57281;SDS011;43129;52.628;10.098;2023-10-31T04:05:42;18.67;;;10.75;;
57281;SDS011;43129;52.628;10.098;2023-10-31T04:08:08;14.63;;;10.50;;
57281;SDS011;43129;52.628;10.098;2023-10-31T04:10:34;17.25;;;11.02;;
57281;SDS011;43129;52.628;10.098;2023-10-31T04:13:02;19.65;;;10.70;;
57281;SDS011;43129;52.628;10.098;2023-10-31T04:15:28;16.15;;;10.77;;
57281;SDS011;43129;52.628;10.098;2023-10-31T04:17:53;17.95;;;11.35;;
57281;SDS011;43129;52.628;10.098;2023-10-31T04:20:19;16.13;;;11.02;;
57281;SDS011;43129;52.628;10.098;2023-10-31T04:22:49;15.68;;;9.18;;
57281;SDS011;43129;52.628;10.098;2023-10-31T04:25:19;13.20;;;9.00;;
57281;SDS011;43129;52.628;10.098;2023-10-31T04:27:48;13.43;;;9.48;;
57281;SDS011;43129;52.628;10.098;2023-10-31T04:30:19;14.15;;;8.40;;
57281;SDS011;43129;52.628;10.098;2023-10-31T04:32:44;11.45;;;8.63;;
57281;SDS011;43129;52.628;10.098;2023-10-31T04:35:12;9.82;;;8.73;;
57281;SDS011;43129;52.628;10.098;2023-10-31T04:37:38;12.85;;;10.35;;
57281;SDS011;43129;52.628;10.098;2023-10-31T04:40:03;12.75;;;10.82;;
57281;SDS011;43129;52.628;10.098;2023-10-31T04:42:32;15.02;;;11.60;;
57281;SDS011;43129;52.628;10.098;2023-10-31T04:45:00;12.27;;;11.05;;
57281;SDS011;43129;52.628;10.098;2023-10-31T04:47:31;13.95;;;11.40;;
57281;SDS011;43129;52.628;10.098;2023-10-31T04:49:59;12.00;;;10.80;;
57281;SDS011;43129;52.628;10.098;2023-10-31T04:52:29;11.68;;;8.90;;
57281;SDS011;43129;52.628;10.098;2023-10-31T04:54:57;10.10;;;9.10;;
57281;SDS011;43129;52.628;10.098;2023-10-31T04:57:23;9.82;;;8.82;;
57281;SDS011;43129;52.628;10.098;2023-10-31T04:59:48;10.10;;;8.75;;
57281;SDS011;43129;52.628;10.098;2023-10-31T05:02:14;9.05;;;8.25;;
57281;SDS011;43129;52.628;10.098;2023-10-31T05:04:40;8.85;;;7.90;;
57281;SDS011;43129;52.628;10.098;2023-10-31T05:07:09;8.38;;;6.97;;
57281;SDS011;43129;52.628;10.098;2023-10-31T05:09:34;5.55;;;4.82;;
57281;SDS011;43129;52.628;10.098;2023-10-31T05:12:00;5.82;;;4.72;;
57281;SDS011;43129;52.628;10.098;2023-10-31T05:14:28;5.28;;;4.45;;
57281;SDS011;43129;52.628;10.098;2023-10-31T05:16:56;4.65;;;4.25;;
57281;SDS011;43129;52.628;10.098;2023-10-31T05:19:24;3.42;;;3.13;;
57281;SDS011;43129;52.628;10.098;2023-10-31T05:21:52;3.40;;;2.85;;
57281;SDS011;43129;52.628;10.098;2023-10-31T05:24:17;2.97;;;2.42;;
57281;SDS011;43129;52.628;10.098;2023-10-31T05:26:48;1.73;;;1.63;;
57281;SDS011;43129;52.628;10.098;2023-10-31T05:29:14;1.98;;;1.80;;
57281;SDS011;43129;52.628;10.098;2023-10-31T05:31:44;1.95;;;1.38;;
57281;SDS011;43129;52.628;10.098;2023-10-31T05:34:12;1.08;;;0.90;;
57281;SDS011;43129;52.628;10.098;2023-10-31T05:36:38;0.80;;;0.80;;
57281;SDS011;43129;52.628;10.098;2023-10-31T05:39:08;1.38;;;0.82;;
57281;SDS011;43129;52.628;10.098;2023-10-31T05:41:35;0.82;;;0.82;;
57281;SDS011;43129;52.628;10.098;2023-10-31T05:44:03;1.40;;;0.93;;
57281;SDS011;43129;52.628;10.098;2023-10-31T05:46:29;0.55;;;0.55;;
57281;SDS011;43129;52.628;10.098;2023-10-31T05:48:55;1.05;;;0.90;;
57281;SDS011;43129;52.628;10.098;2023-10-31T05:51:20;1.20;;;0.73;;
57281;SDS011;43129;52.628;10.098;2023-10-31T05:53:50;1.00;;;0.60;;
57281;SDS011;43129;52.628;10.098;2023-10-31T05:56:20;1.00;;;0.40;;
57281;SDS011;43129;52.628;10.098;2023-10-31T05:58:46;0.47;;;0.45;;
57281;SDS011;43129;52.628;10.098;2023-10-31T06:01:14;1.23;;;0.68;;
57281;SDS011;43129;52.628;10.098;2023-10-31T06:03:43;2.65;;;0.80;;
57281;SDS011;43129;52.628;10.098;2023-10-31T06:06:09;1.15;;;0.40;;
57281;SDS011;43129;52.628;10.098;2023-10-31T06:08:39;0.65;;;0.65;;
57281;SDS011;43129;52.628;10.098;2023-10-31T06:11:08;0.65;;;0.60;;
57281;SDS011;43129;52.628;10.098;2023-10-31T06:13:37;2.42;;;0.70;;
57281;SDS011;43129;52.628;10.098;2023-10-31T06:16:03;0.50;;;0.50;;
57281;SDS011;43129;52.628;10.098;2023-10-31T06:18:29;0.77;;;0.77;;
57281;SDS011;43129;52.628;10.098;2023-10-31T06:20:55;0.85;;;0.70;;
57281;SDS011;43129;52.628;10.098;2023-10-31T06:23:21;0.70;;;0.50;;
57281;SDS011;43129;52.628;10.098;2023-10-31T06:25:46;1.40;;;0.88;;
57281;SDS011;43129;52.628;10.098;2023-10-31T06:28:12;0.95;;;0.70;;
57281;SDS011;43129;52.628;10.098;2023-10-31T06:30:38;0.82;;;0.60;;
57281;SDS011;43129;52.628;10.098;2023-10-31T06:33:04;1.58;;;0.85;;
57281;SDS011;43129;52.628;10.098;2023-10-31T06:35:32;1.08;;;0.70;;
57281;SDS011;43129;52.628;10.098;2023-10-31T06:37:58;1.98;;;0.93;;
57281;SDS011;43129;52.628;10.098;2023-10-31T06:40:26;1.55;;;0.88;;
57281;SDS011;43129;52.628;10.098;2023-10-31T06:42:52;1.27;;;0.98;;
57281;SDS011;43129;52.628;10.098;2023-10-31T06:45:17;1.50;;;0.82;;
57281;SDS011;43129;52.628;10.098;2023-10-31T06:47:46;2.95;;;2.05;;
57281;SDS011;43129;52.628;10.098;2023-10-31T06:50:11;2.22;;;1.20;;
57281;SDS011;43129;52.628;10.098;2023-10-31T06:52:37;1.35;;;1.08;;
57281;SDS011;43129;52.628;10.098;2023-10-31T06:55:03;3.10;;;1.25;;
57281;SDS011;43129;52.628;10.098;2023-10-31T06:57:28;2.22;;;1.40;;
57281;SDS011;43129;52.628;10.098;2023-10-31T06:59:56;2.45;;;1.58;;
57281;SDS011;43129;52.628;10.098;2023-10-31T07:02:22;3.33;;;1.80;;
57281;SDS011;43129;52.628;10.098;2023-10-31T07:04:47;3.72;;;1.90;;
57281;SDS011;43129;52.628;10.098;2023-10-31T07:07:14;3.55;;;1.60;;
57281;SDS011;43129;52.628;10.098;2023-10-31T07:09:42;2.03;;;1.55;;
57281;SDS011;43129;52.628;10.098;2023-10-31T07:12:07;2.75;;;1.70;;
57281;SDS011;43129;52.628;10.098;2023-10-31T07:14:33;3.13;;;1.60;;
57281;SDS011;43129;52.628;10.098;2023-10-31T07:16:59;2.00;;;1.45;;
57281;SDS011;43129;52.628;10.098;2023-10-31T07:19:24;5.22;;;1.70;;
57281;SDS011;43129;52.628;10.098;2023-10-31T07:21:50;2.72;;;1.60;;
57281;SDS011;43129;52.628;10.098;2023-10-31T07:24:15;3.25;;;1.50;;
57281;SDS011;43129;52.628;10.098;2023-10-31T07:26:44;2.22;;;1.50;;
57281;SDS011;43129;52.628;10.098;2023-10-31T07:29:11;1.60;;;1.25;;
57281;SDS011;43129;52.628;10.098;2023-10-31T07:31:37;3.45;;;1.60;;
57281;SDS011;43129;52.628;10.098;2023-10-31T07:34:04;3.67;;;1.30;;
57281;SDS011;43129;52.628;10.098;2023-10-31T07:36:30;1.77;;;1.30;;
57281;SDS011;43129;52.628;10.098;2023-10-31T07:38:57;1.65;;;1.27;;
57281;SDS011;43129;52.628;10.098;2023-10-31T07:41:23;2.78;;;1.30;;
57281;SDS011;43129;52.628;10.098;2023-10-31T07:43:49;2.00;;;1.23;;
57281;SDS011;43129;52.628;10.098;2023-10-31T07:46:15;2.78;;;1.40;;
57281;SDS011;43129;52.628;10.098;2023-10-31T07:48:40;2.70;;;1.40;;
57281;SDS011;43129;52.628;10.098;2023-10-31T07:51:06;3.20;;;1.50;;
57281;SDS011;43129;52.628;10.098;2023-10-31T07:53:32;3.90;;;1.25;;
57281;SDS011;43129;52.628;10.098;2023-10-31T07:55:57;5.25;;;2.08;;
57281;SDS011;43129;52.628;10.098;2023-10-31T07:58:23;2.38;;;1.20;;
57281;SDS011;43129;52.628;10.098;2023-10-31T08:00:51;1.85;;;1.48;;
57281;SDS011;43129;52.628;10.098;2023-10-31T08:03:16;4.60;;;1.95;;
57281;SDS011;43129;52.628;10.098;2023-10-31T08:05:44;5.05;;;1.75;;
57281;SDS011;43129;52.628;10.098;2023-10-31T08:08:10;3.03;;;1.67;;
57281;SDS011;43129;52.628;10.098;2023-10-31T08:10:36;2.03;;;1.48;;
57281;SDS011;43129;52.628;10.098;2023-10-31T08:13:04;2.45;;;1.40;;
57281;SDS011;43129;52.628;10.098;2023-10-31T08:15:29;2.75;;;1.60;;
57281;SDS011;43129;52.628;10.098;2023-10-31T08:17:57;1.77;;;1.42;;
57281;SDS011;43129;52.628;10.098;2023-10-31T08:20:23;2.30;;;1.30;;
57281;SDS011;43129;52.628;10.098;2023-10-31T08:22:49;4.68;;;1.92;;
57281;SDS011;43129;52.628;10.098;2023-10-31T08:25:14;2.58;;;1.77;;
57281;SDS011;43129;52.628;10.098;2023-10-31T08:27:40;2.75;;;1.67;;
57281;SDS011;43129;52.628;10.098;2023-10-31T08:30:06;3.13;;;1.80;;
57281;SDS011;43129;52.628;10.098;2023-10-31T08:32:32;2.92;;;1.42;;
57281;SDS011;43129;52.628;10.098;2023-10-31T08:34:57;2.58;;;1.48;;
57281;SDS011;43129;52.628;10.098;2023-10-31T08:37:23;3.10;;;1.63;;
57281;SDS011;43129;52.628;10.098;2023-10-31T08:39:51;1.75;;;1.33;;
57281;SDS011;43129;52.628;10.098;2023-10-31T08:42:17;3.22;;;1.63;;
57281;SDS011;43129;52.628;10.098;2023-10-31T08:44:45;2.60;;;1.48;;
57281;SDS011;43129;52.628;10.098;2023-10-31T08:47:13;2.58;;;1.30;;
57281;SDS011;43129;52.628;10.098;2023-10-31T08:49:38;2.97;;;1.38;;
57281;SDS011;43129;52.628;10.098;2023-10-31T08:52:04;2.40;;;1.58;;
57281;SDS011;43129;52.628;10.098;2023-10-31T08:54:30;2.17;;;1.58;;
57281;SDS011;43129;52.628;10.098;2023-10-31T08:57:00;2.72;;;2.00;;
57281;SDS011;43129;52.628;10.098;2023-10-31T08:59:25;2.15;;;1.35;;
57281;SDS011;43129;52.628;10.098;2023-10-31T09:01:53;1.60;;;1.50;;
57281;SDS011;43129;52.628;10.098;2023-10-31T09:04:19;1.90;;;1.73;;
57281;SDS011;43129;52.628;10.098;2023-10-31T09:06:47;2.15;;;1.50;;
57281;SDS011;43129;52.628;10.098;2023-10-31T09:09:13;3.63;;;1.83;;
57281;SDS011;43129;52.628;10.098;2023-10-31T09:11:40;2.90;;;1.60;;
57281;SDS011;43129;52.628;10.098;2023-10-31T09:14:06;2.50;;;1.80;;
57281;SDS011;43129;52.628;10.098;2023-10-31T09:16:34;2.60;;;1.63;;
57281;SDS011;43129;52.628;10.098;2023-10-31T09:18:59;2.47;;;1.42;;
57281;SDS011;43129;52.628;10.098;2023-10-31T09:21:25;1.67;;;1.23;;
57281;SDS011;43129;52.628;10.098;2023-10-31T09:23:51;1.65;;;1.20;;
57281;SDS011;43129;52.628;10.098;2023-10-31T09:26:16;1.40;;;1.20;;
57281;SDS011;43129;52.628;10.098;2023-10-31T09:28:45;2.85;;;1.35;;
57281;SDS011;43129;52.628;10.098;2023-10-31T09:31:18;3.22;;;1.50;;
57281;SDS011;43129;52.628;10.098;2023-10-31T09:33:49;1.70;;;1.00;;
57281;SDS011;43129;52.628;10.098;2023-10-31T09:36:14;1.88;;;1.30;;
57281;SDS011;43129;52.628;10.098;2023-10-31T09:38:40;1.25;;;1.10;;
57281;SDS011;43129;52.628;10.098;2023-10-31T09:41:06;2.00;;;1.50;;
57281;SDS011;43129;52.628;10.098;2023-10-31T09:43:32;3.28;;;2.38;;
57281;SDS011;43129;52.628;10.098;2023-10-31T09:45:58;1.83;;;1.27;;
57281;SDS011;43129;52.628;10.098;2023-10-31T09:48:25;1.05;;;0.82;;
57281;SDS011;43129;52.628;10.098;2023-10-31T09:50:54;1.85;;;0.95;;
57281;SDS011;43129;52.628;10.098;2023-10-31T09:53:20;1.90;;;1.08;;
57281;SDS011;43129;52.628;10.098;2023-10-31T09:55:47;1.33;;;1.23;;
57281;SDS011;43129;52.628;10.098;2023-10-31T09:58:13;1.80;;;1.33;;
57281;SDS011;43129;52.628;10.098;2023-10-31T10:00:39;2.00;;;1.40;;
57281;SDS011;43129;52.628;10.098;2023-10-31T10:03:08;3.75;;;1.67;;
57281;SDS011;43129;52.628;10.098;2023-10-31T10:05:36;4.93;;;1.75;;
57281;SDS011;43129;52.628;10.098;2023-10-31T10:08:03;2.10;;;1.90;;
57281;SDS011;43129;52.628;10.098;2023-10-31T10:10:33;4.00;;;2.10;;
57281;SDS011;43129;52.628;10.098;2023-10-31T10:13:02;2.80;;;2.10;;
57281;SDS011;43129;52.628;10.098;2023-10-31T10:15:28;3.22;;;2.20;;
57281;SDS011;43129;52.628;10.098;2023-10-31T10:17:56;2.88;;;2.55;;
57281;SDS011;43129;52.628;10.098;2023-10-31T10:20:21;4.60;;;2.55;;
57281;SDS011;43129;52.628;10.098;2023-10-31T10:22:47;2.50;;;2.30;;
57281;SDS011;43129;52.628;10.098;2023-10-31T10:25:16;3.28;;;2.95;;
57281;SDS011;43129;52.628;10.098;2023-10-31T10:27:43;8.00;;;3.78;;
57281;SDS011;43129;52.628;10.098;2023-10-31T10:30:10;7.95;;;4.65;;
57281;SDS011;43129;52.628;10.098;2023-10-31T10:32:39;5.07;;;3.95;;
57281;SDS011;43129;52.628;10.098;2023-10-31T10:35:06;12.35;;;8.18;;
57281;SDS011;43129;52.628;10.098;2023-10-31T10:37:32;5.50;;;3.63;;
57281;SDS011;43129;52.628;10.098;2023-10-31T10:39:59;5.43;;;3.50;;
57281;SDS011;43129;52.628;10.098;2023-10-31T10:42:32;5.30;;;3.67;;
57281;SDS011;43129;52.628;10.098;2023-10-31T10:45:03;4.10;;;3.35;;
57281;SDS011;43129;52.628;10.098;2023-10-31T10:47:33;3.72;;;2.90;;
57281;SDS011;43129;52.628;10.098;2023-10-31T10:50:03;4.60;;;3.03;;
57281;SDS011;43129;52.628;10.098;2023-10-31T10:52:54;4.63;;;2.85;;
57281;SDS011;43129;52.628;10.098;2023-10-31T10:55:32;7.72;;;3.25;;
57281;SDS011;43129;52.628;10.098;2023-10-31T10:58:13;4.65;;;2.42;;
57281;SDS011;43129;52.628;10.098;2023-10-31T11:00:47;15.50;;;8.75;;
57281;SDS011;43129;52.628;10.098;2023-10-31T11:03:17;7.47;;;4.45;;
57281;SDS011;43129;52.628;10.098;2023-10-31T11:05:45;4.95;;;2.63;;
57281;SDS011;43129;52.628;10.098;2023-10-31T11:08:13;7.80;;;3.45;;
57281;SDS011;43129;52.628;10.098;2023-10-31T11:10:39;3.35;;;2.20;;
57281;SDS011;43129;52.628;10.098;2023-10-31T11:13:08;8.60;;;4.28;;
57281;SDS011;43129;52.628;10.098;2023-10-31T11:15:35;4.53;;;3.03;;
57281;SDS011;43129;52.628;10.098;2023-10-31T11:18:02;6.30;;;2.92;;
57281;SDS011;43129;52.628;10.098;2023-10-31T11:20:29;6.88;;;3.42;;
57281;SDS011;43129;52.628;10.098;2023-10-31T11:22:56;4.78;;;2.88;;
57281;SDS011;43129;52.628;10.098;2023-10-31T11:25:29;3.20;;;2.00;;
57281;SDS011;43129;52.628;10.098;2023-10-31T11:27:57;3.22;;;2.15;;
57281;SDS011;43129;52.628;10.098;2023-10-31T11:30:36;5.55;;;1.98;;
57281;SDS011;43129;52.628;10.098;2023-10-31T11:33:02;4.90;;;2.33;;
57281;SDS011;43129;52.628;10.098;2023-10-31T11:35:36;2.30;;;1.90;;
57281;SDS011;43129;52.628;10.098;2023-10-31T11:38:05;3.05;;;2.15;;
57281;SDS011;43129;52.628;10.098;2023-10-31T11:40:32;2.63;;;2.28;;
57281;SDS011;43129;52.628;10.098;2023-10-31T11:43:01;2.88;;;2.17;;
57281;SDS011;43129;52.628;10.098;2023-10-31T11:47:58;4.55;;;2.50;;
57281;SDS011;43129;52.628;10.098;2023-10-31T11:50:24;2.13;;;1.90;;
57281;SDS011;43129;52.628;10.098;2023-10-31T11:55:25;3.90;;;2.20;;
57281;SDS011;43129;52.628;10.098;2023-10-31T11:57:51;2.63;;;1.80;;
57281;SDS011;43129;52.628;10.098;2023-10-31T12:00:21;4.43;;;1.80;;
57281;SDS011;43129;52.628;10.098;2023-10-31T12:05:27;2.20;;;2.00;;
57281;SDS011;43129;52.628;10.098;2023-10-31T12:07:56;2.63;;;1.80;;
57281;SDS011;43129;52.628;10.098;2023-10-31T12:10:26;5.75;;;1.92;;
57281;SDS011;43129;52.628;10.098;2023-10-31T12:12:55;3.42;;;2.10;;
57281;SDS011;43129;52.628;10.098;2023-10-31T12:15:21;2.78;;;1.58;;
57281;SDS011;43129;52.628;10.098;2023-10-31T12:17:47;2.25;;;1.45;;
57281;SDS011;43129;52.628;10.098;2023-10-31T12:20:14;2.63;;;1.75;;
57281;SDS011;43129;52.628;10.098;2023-10-31T12:22:41;2.08;;;1.52;;
57281;SDS011;43129;52.628;10.098;2023-10-31T12:25:07;4.85;;;2.47;;
57281;SDS011;43129;52.628;10.098;2023-10-31T12:27:51;2.53;;;1.73;;
57281;SDS011;43129;52.628;10.098;2023-10-31T12:30:18;3.47;;;1.88;;
57281;SDS011;43129;52.628;10.098;2023-10-31T12:32:54;2.40;;;1.58;;
57281;SDS011;43129;52.628;10.098;2023-10-31T12:35:21;5.38;;;1.70;;
57281;SDS011;43129;52.628;10.098;2023-10-31T12:37:48;2.85;;;1.70;;
57281;SDS011;43129;52.628;10.098;2023-10-31T12:40:15;3.47;;;1.90;;
57281;SDS011;43129;52.628;10.098;2023-10-31T12:42:45;1.83;;;1.58;;
57281;SDS011;43129;52.628;10.098;2023-10-31T12:45:14;2.33;;;1.80;;
57281;SDS011;43129;52.628;10.098;2023-10-31T12:47:42;3.22;;;1.60;;
57281;SDS011;43129;52.628;10.098;2023-10-31T12:50:15;2.60;;;1.85;;
57281;SDS011;43129;52.628;10.098;2023-10-31T12:52:47;4.07;;;1.88;;
57281;SDS011;43129;52.628;10.098;2023-10-31T12:55:22;3.47;;;1.58;;
57281;SDS011;43129;52.628;10.098;2023-10-31T12:57:49;2.85;;;2.00;;
57281;SDS011;43129;52.628;10.098;2023-10-31T13:00:16;2.13;;;1.70;;
57281;SDS011;43129;52.628;10.098;2023-10-31T13:03:04;4.25;;;2.00;;
57281;SDS011;43129;52.628;10.098;2023-10-31T13:05:33;3.65;;;1.65;;
57281;SDS011;43129;52.628;10.098;2023-10-31T13:07:59;5.25;;;2.10;;
57281;SDS011;43129;52.628;10.098;2023-10-31T13:10:26;3.17;;;1.60;;
57281;SDS011;43129;52.628;10.098;2023-10-31T13:12:52;5.78;;;1.92;;
57281;SDS011;43129;52.628;10.098;2023-10-31T13:15:19;2.55;;;1.48;;
57281;SDS011;43129;52.628;10.098;2023-10-31T13:17:51;3.65;;;1.90;;
57281;SDS011;43129;52.628;10.098;2023-10-31T13:20:18;6.70;;;2.63;;
57281;SDS011;43129;52.628;10.098;2023-10-31T13:22:44;2.33;;;1.40;;
57281;SDS011;43129;52.628;10.098;2023-10-31T13:39:00;2.25;;;1.20;;
57281;SDS011;43129;52.628;10.098;2023-10-31T13:41:28;2.65;;;1.40;;
57281;SDS011;43129;52.628;10.098;2023-10-31T13:43:53;2.35;;;1.48;;
57281;SDS011;43129;52.628;10.098;2023-10-31T13:46:19;2.03;;;1.10;;
57281;SDS011;43129;52.628;10.098;2023-10-31T13:48:45;3.15;;;1.20;;
57281;SDS011;43129;52.628;10.098;2023-10-31T13:51:11;4.10;;;1.27;;
57281;SDS011;43129;52.628;10.098;2023-10-31T13:53:39;5.20;;;1.52;;
57281;SDS011;43129;52.628;10.098;2023-10-31T13:56:05;1.33;;;1.10;;
57281;SDS011;43129;52.628;10.098;2023-10-31T13:58:32;2.63;;;1.00;;
57281;SDS011;43129;52.628;10.098;2023-10-31T14:00:57;3.17;;;1.00;;
57281;SDS011;43129;52.628;10.098;2023-10-31T14:03:26;1.80;;;1.10;;
57281;SDS011;43129;52.628;10.098;2023-10-31T14:05:51;2.53;;;1.10;;
57281;SDS011;43129;52.628;10.098;2023-10-31T14:08:18;3.40;;;1.20;;
57281;SDS011;43129;52.628;10.098;2023-10-31T14:10:44;2.92;;;1.00;;
57281;SDS011;43129;52.628;10.098;2023-10-31T14:13:11;2.92;;;1.00;;
57281;SDS011;43129;52.628;10.098;2023-10-31T14:15:39;3.58;;;1.42;;
57281;SDS011;43129;52.628;10.098;2023-10-31T14:18:06;4.38;;;2.70;;
57281;SDS011;43129;52.628;10.098;2023-10-31T14:20:33;3.83;;;1.75;;
57281;SDS011;43129;52.628;10.098;2023-10-31T14:23:01;4.40;;;1.20;;
57281;SDS011;43129;52.628;10.098;2023-10-31T14:25:27;2.72;;;1.30;;
57281;SDS011;43129;52.628;10.098;2023-10-31T14:27:55;1.88;;;0.93;;
57281;SDS011;43129;52.628;10.098;2023-10-31T14:30:21;3.28;;;0.93;;
57281;SDS011;43129;52.628;10.098;2023-10-31T14:32:50;3.13;;;1.20;;
57281;SDS011;43129;52.628;10.098;2023-10-31T14:35:18;3.67;;;1.25;;
57281;SDS011;43129;52.628;10.098;2023-10-31T14:37:48;3.50;;;1.02;;
57281;SDS011;43129;52.628;10.098;2023-10-31T14:40:16;3.67;;;1.17;;
57281;SDS011;43129;52.628;10.098;2023-10-31T14:42:42;2.55;;;1.05;;
57281;SDS011;43129;52.628;10.098;2023-10-31T14:45:08;3.58;;;1.10;;
57281;SDS011;43129;52.628;10.098;2023-10-31T14:47:39;1.85;;;1.00;;
57281;SDS011;43129;52.628;10.098;2023-10-31T14:50:04;1.20;;;0.90;;